sensor_id;sensor_type;location;lat;lon;timestamp;temperature;humidity
22968;DHT22;11650;48.106;-1.696;2023-06-04T00:00:30;17.20;99.90
22968;DHT22;11650;48.106;-1.696;2023-06-04T00:02:55;17.10;99.90
22968;DHT22;11650;48.106;-1.696;2023-06-04T00:05:21;17.10;99.90
22968;DHT22;11650;48.106;-1.696;2023-06-04T00:07:51;17.10;99.90
22968;DHT22;11650;48.106;-1.696;2023-06-04T00:10:17;17.00;99.90
22968;DHT22;11650;48.106;-1.696;2023-06-04T00:12:42;17.00;99.90
22968;DHT22;11650;48.106;-1.696;2023-06-04T00:15:08;16.90;99.90
22968;DHT22;11650;48.106;-1.696;2023-06-04T00:17:34;16.80;99.90
22968;DHT22;11650;48.106;-1.696;2023-06-04T00:19:59;16.90;99.90
22968;DHT22;11650;48.106;-1.696;2023-06-04T00:22:25;16.80;99.90
22968;DHT22;11650;48.106;-1.696;2023-06-04T00:24:51;16.70;99.90
22968;DHT22;11650;48.106;-1.696;2023-06-04T00:27:16;16.60;99.90
22968;DHT22;11650;48.106;-1.696;2023-06-04T00:29:42;16.50;99.90
22968;DHT22;11650;48.106;-1.696;2023-06-04T00:32:08;16.50;99.90
22968;DHT22;11650;48.106;-1.696;2023-06-04T00:34:34;16.50;99.90
22968;DHT22;11650;48.106;-1.696;2023-06-04T00:37:00;16.40;99.90
22968;DHT22;11650;48.106;-1.696;2023-06-04T00:39:26;16.40;99.90
22968;DHT22;11650;48.106;-1.696;2023-06-04T00:41:52;16.40;99.90
22968;DHT22;11650;48.106;-1.696;2023-06-04T00:44:18;16.20;99.90
22968;DHT22;11650;48.106;-1.696;2023-06-04T00:46:44;16.20;99.90
22968;DHT22;11650;48.106;-1.696;2023-06-04T00:49:11;16.20;99.90
22968;DHT22;11650;48.106;-1.696;2023-06-04T00:51:37;16.20;99.90
22968;DHT22;11650;48.106;-1.696;2023-06-04T00:54:04;16.20;99.90
22968;DHT22;11650;48.106;-1.696;2023-06-04T00:56:35;16.10;99.90
22968;DHT22;11650;48.106;-1.696;2023-06-04T00:59:03;16.20;99.90
22968;DHT22;11650;48.106;-1.696;2023-06-04T01:04:29;16.10;99.90
22968;DHT22;11650;48.106;-1.696;2023-06-04T01:06:57;16.20;99.90
22968;DHT22;11650;48.106;-1.696;2023-06-04T01:09:26;16.20;99.90
22968;DHT22;11650;48.106;-1.696;2023-06-04T01:11:53;16.20;99.90
22968;DHT22;11650;48.106;-1.696;2023-06-04T01:14:19;16.10;99.90
22968;DHT22;11650;48.106;-1.696;2023-06-04T01:16:55;15.90;99.90
22968;DHT22;11650;48.106;-1.696;2023-06-04T01:22:46;16.00;99.90
22968;DHT22;11650;48.106;-1.696;2023-06-04T01:25:43;16.00;99.90
22968;DHT22;11650;48.106;-1.696;2023-06-04T01:28:11;16.00;99.90
22968;DHT22;11650;48.106;-1.696;2023-06-04T01:30:39;16.00;99.90
22968;DHT22;11650;48.106;-1.696;2023-06-04T01:33:08;16.00;99.90
22968;DHT22;11650;48.106;-1.696;2023-06-04T01:35:34;16.00;99.90
22968;DHT22;11650;48.106;-1.696;2023-06-04T01:38:00;15.90;99.90
22968;DHT22;11650;48.106;-1.696;2023-06-04T01:40:25;15.90;99.90
22968;DHT22;11650;48.106;-1.696;2023-06-04T01:42:52;15.90;99.90
22968;DHT22;11650;48.106;-1.696;2023-06-04T01:45:18;15.80;99.90
22968;DHT22;11650;48.106;-1.696;2023-06-04T01:47:43;15.70;99.90
22968;DHT22;11650;48.106;-1.696;2023-06-04T01:50:09;15.80;99.90
22968;DHT22;11650;48.106;-1.696;2023-06-04T01:52:36;15.80;99.90
22968;DHT22;11650;48.106;-1.696;2023-06-04T01:55:09;15.80;99.90
22968;DHT22;11650;48.106;-1.696;2023-06-04T01:57:38;15.80;99.90
22968;DHT22;11650;48.106;-1.696;2023-06-04T02:00:07;15.70;99.90
22968;DHT22;11650;48.106;-1.696;2023-06-04T02:02:35;15.60;99.90
22968;DHT22;11650;48.106;-1.696;2023-06-04T02:05:06;15.70;99.90
22968;DHT22;11650;48.106;-1.696;2023-06-04T02:07:36;15.60;99.90
22968;DHT22;11650;48.106;-1.696;2023-06-04T02:10:07;15.50;99.90
22968;DHT22;11650;48.106;-1.696;2023-06-04T02:12:36;15.50;99.90
22968;DHT22;11650;48.106;-1.696;2023-06-04T02:15:03;15.60;99.90
22968;DHT22;11650;48.106;-1.696;2023-06-04T02:17:29;15.40;99.90
22968;DHT22;11650;48.106;-1.696;2023-06-04T02:19:58;15.50;99.90
22968;DHT22;11650;48.106;-1.696;2023-06-04T02:22:25;15.40;99.90
22968;DHT22;11650;48.106;-1.696;2023-06-04T02:24:51;15.40;99.90
22968;DHT22;11650;48.106;-1.696;2023-06-04T02:27:17;15.30;99.90
22968;DHT22;11650;48.106;-1.696;2023-06-04T02:29:43;15.20;99.90
22968;DHT22;11650;48.106;-1.696;2023-06-04T02:32:09;15.10;99.90
22968;DHT22;11650;48.106;-1.696;2023-06-04T02:34:35;15.10;99.90
22968;DHT22;11650;48.106;-1.696;2023-06-04T02:37:01;15.10;99.90
22968;DHT22;11650;48.106;-1.696;2023-06-04T02:39:27;15.10;99.90
22968;DHT22;11650;48.106;-1.696;2023-06-04T02:41:53;15.10;99.90
22968;DHT22;11650;48.106;-1.696;2023-06-04T02:44:19;15.10;99.90
22968;DHT22;11650;48.106;-1.696;2023-06-04T02:46:45;15.00;99.90
22968;DHT22;11650;48.106;-1.696;2023-06-04T02:49:11;14.90;99.90
22968;DHT22;11650;48.106;-1.696;2023-06-04T02:51:40;14.90;99.90
22968;DHT22;11650;48.106;-1.696;2023-06-04T02:54:06;14.90;99.90
22968;DHT22;11650;48.106;-1.696;2023-06-04T02:56:33;14.80;99.90
22968;DHT22;11650;48.106;-1.696;2023-06-04T02:58:58;14.80;99.90
22968;DHT22;11650;48.106;-1.696;2023-06-04T03:01:26;14.80;99.90
22968;DHT22;11650;48.106;-1.696;2023-06-04T03:03:52;14.80;99.90
22968;DHT22;11650;48.106;-1.696;2023-06-04T03:06:19;14.80;99.90
22968;DHT22;11650;48.106;-1.696;2023-06-04T03:08:47;14.70;99.90
22968;DHT22;11650;48.106;-1.696;2023-06-04T03:11:13;14.70;99.90
22968;DHT22;11650;48.106;-1.696;2023-06-04T03:13:39;14.70;99.90
22968;DHT22;11650;48.106;-1.696;2023-06-04T03:16:05;14.60;99.90
22968;DHT22;11650;48.106;-1.696;2023-06-04T03:18:39;14.60;99.90
22968;DHT22;11650;48.106;-1.696;2023-06-04T03:21:06;14.70;99.90
22968;DHT22;11650;48.106;-1.696;2023-06-04T03:23:32;14.60;99.90
22968;DHT22;11650;48.106;-1.696;2023-06-04T03:26:00;14.50;99.90
22968;DHT22;11650;48.106;-1.696;2023-06-04T03:28:26;14.60;99.90
22968;DHT22;11650;48.106;-1.696;2023-06-04T03:30:52;14.40;99.90
22968;DHT22;11650;48.106;-1.696;2023-06-04T03:33:17;14.40;99.90
22968;DHT22;11650;48.106;-1.696;2023-06-04T03:35:43;14.50;99.90
22968;DHT22;11650;48.106;-1.696;2023-06-04T03:38:09;14.40;99.90
22968;DHT22;11650;48.106;-1.696;2023-06-04T03:40:34;14.40;99.90
22968;DHT22;11650;48.106;-1.696;2023-06-04T03:43:00;14.40;99.90
22968;DHT22;11650;48.106;-1.696;2023-06-04T03:45:26;14.40;99.90
22968;DHT22;11650;48.106;-1.696;2023-06-04T03:47:51;14.40;99.90
22968;DHT22;11650;48.106;-1.696;2023-06-04T03:50:18;14.40;99.90
22968;DHT22;11650;48.106;-1.696;2023-06-04T03:52:44;14.30;99.90
22968;DHT22;11650;48.106;-1.696;2023-06-04T03:55:10;14.30;99.90
22968;DHT22;11650;48.106;-1.696;2023-06-04T03:57:36;14.30;99.90
22968;DHT22;11650;48.106;-1.696;2023-06-04T04:00:05;14.20;99.90
22968;DHT22;11650;48.106;-1.696;2023-06-04T04:02:31;14.20;99.90
22968;DHT22;11650;48.106;-1.696;2023-06-04T04:04:57;14.20;99.90
22968;DHT22;11650;48.106;-1.696;2023-06-04T04:07:23;14.20;99.90
22968;DHT22;11650;48.106;-1.696;2023-06-04T04:09:50;14.20;99.90
22968;DHT22;11650;48.106;-1.696;2023-06-04T04:12:16;14.20;99.90
22968;DHT22;11650;48.106;-1.696;2023-06-04T04:14:42;14.20;99.90
22968;DHT22;11650;48.106;-1.696;2023-06-04T04:17:08;14.10;99.90
22968;DHT22;11650;48.106;-1.696;2023-06-04T04:19:33;14.10;99.90
22968;DHT22;11650;48.106;-1.696;2023-06-04T04:21:59;14.10;99.90
22968;DHT22;11650;48.106;-1.696;2023-06-04T04:24:26;14.00;99.90
22968;DHT22;11650;48.106;-1.696;2023-06-04T04:26:52;14.10;99.90
22968;DHT22;11650;48.106;-1.696;2023-06-04T04:29:22;14.00;99.90
22968;DHT22;11650;48.106;-1.696;2023-06-04T04:31:50;14.00;99.90
22968;DHT22;11650;48.106;-1.696;2023-06-04T04:34:16;14.00;99.90
22968;DHT22;11650;48.106;-1.696;2023-06-04T04:36:43;14.10;99.90
22968;DHT22;11650;48.106;-1.696;2023-06-04T04:39:09;14.20;99.90
22968;DHT22;11650;48.106;-1.696;2023-06-04T04:41:37;14.10;99.90
22968;DHT22;11650;48.106;-1.696;2023-06-04T04:44:03;14.10;99.90
22968;DHT22;11650;48.106;-1.696;2023-06-04T04:46:32;14.10;99.90
22968;DHT22;11650;48.106;-1.696;2023-06-04T04:48:58;14.10;99.90
22968;DHT22;11650;48.106;-1.696;2023-06-04T04:51:23;14.20;99.90
22968;DHT22;11650;48.106;-1.696;2023-06-04T04:53:49;14.20;99.90
22968;DHT22;11650;48.106;-1.696;2023-06-04T04:56:15;14.20;99.90
22968;DHT22;11650;48.106;-1.696;2023-06-04T04:58:40;14.10;99.90
22968;DHT22;11650;48.106;-1.696;2023-06-04T05:01:07;14.30;99.90
22968;DHT22;11650;48.106;-1.696;2023-06-04T05:03:33;14.20;99.90
22968;DHT22;11650;48.106;-1.696;2023-06-04T05:05:58;14.20;99.90
22968;DHT22;11650;48.106;-1.696;2023-06-04T05:08:24;14.30;99.90
22968;DHT22;11650;48.106;-1.696;2023-06-04T05:10:50;14.30;99.90
22968;DHT22;11650;48.106;-1.696;2023-06-04T05:13:16;14.30;99.90
22968;DHT22;11650;48.106;-1.696;2023-06-04T05:15:43;14.40;99.90
22968;DHT22;11650;48.106;-1.696;2023-06-04T05:18:08;14.40;99.90
22968;DHT22;11650;48.106;-1.696;2023-06-04T05:20:34;14.40;99.90
22968;DHT22;11650;48.106;-1.696;2023-06-04T05:23:03;14.50;99.90
22968;DHT22;11650;48.106;-1.696;2023-06-04T05:25:29;14.50;99.90
22968;DHT22;11650;48.106;-1.696;2023-06-04T05:27:56;14.60;99.90
22968;DHT22;11650;48.106;-1.696;2023-06-04T05:30:22;14.60;99.90
22968;DHT22;11650;48.106;-1.696;2023-06-04T05:32:48;14.50;99.90
22968;DHT22;11650;48.106;-1.696;2023-06-04T05:35:16;14.60;99.90
22968;DHT22;11650;48.106;-1.696;2023-06-04T05:37:42;14.60;99.90
22968;DHT22;11650;48.106;-1.696;2023-06-04T05:40:11;14.70;99.90
22968;DHT22;11650;48.106;-1.696;2023-06-04T05:42:38;14.90;99.90
22968;DHT22;11650;48.106;-1.696;2023-06-04T05:45:05;15.00;99.90
22968;DHT22;11650;48.106;-1.696;2023-06-04T05:47:31;14.90;99.90
22968;DHT22;11650;48.106;-1.696;2023-06-04T05:49:57;15.00;99.90
22968;DHT22;11650;48.106;-1.696;2023-06-04T05:52:23;15.00;99.90
22968;DHT22;11650;48.106;-1.696;2023-06-04T05:54:49;14.90;99.90
22968;DHT22;11650;48.106;-1.696;2023-06-04T05:57:14;15.00;99.90
22968;DHT22;11650;48.106;-1.696;2023-06-04T05:59:40;15.10;99.90
22968;DHT22;11650;48.106;-1.696;2023-06-04T06:02:06;15.10;99.90
22968;DHT22;11650;48.106;-1.696;2023-06-04T06:04:32;15.20;99.90
22968;DHT22;11650;48.106;-1.696;2023-06-04T06:06:58;15.30;99.90
22968;DHT22;11650;48.106;-1.696;2023-06-04T06:09:23;15.30;99.90
22968;DHT22;11650;48.106;-1.696;2023-06-04T06:11:49;15.30;99.90
22968;DHT22;11650;48.106;-1.696;2023-06-04T06:14:15;15.40;99.90
22968;DHT22;11650;48.106;-1.696;2023-06-04T06:16:40;15.40;99.90
22968;DHT22;11650;48.106;-1.696;2023-06-04T06:19:06;15.30;99.90
22968;DHT22;11650;48.106;-1.696;2023-06-04T06:21:32;15.50;99.90
22968;DHT22;11650;48.106;-1.696;2023-06-04T06:23:57;15.50;99.90
22968;DHT22;11650;48.106;-1.696;2023-06-04T06:26:23;15.60;99.90
22968;DHT22;11650;48.106;-1.696;2023-06-04T06:28:50;15.60;99.90
22968;DHT22;11650;48.106;-1.696;2023-06-04T06:31:16;15.60;99.90
22968;DHT22;11650;48.106;-1.696;2023-06-04T06:33:41;15.70;99.90
22968;DHT22;11650;48.106;-1.696;2023-06-04T06:36:09;15.90;99.90
22968;DHT22;11650;48.106;-1.696;2023-06-04T06:38:35;16.00;99.90
22968;DHT22;11650;48.106;-1.696;2023-06-04T06:41:00;16.00;99.90
22968;DHT22;11650;48.106;-1.696;2023-06-04T06:43:26;15.90;99.90
22968;DHT22;11650;48.106;-1.696;2023-06-04T06:45:51;16.00;99.90
22968;DHT22;11650;48.106;-1.696;2023-06-04T06:48:17;16.10;99.90
22968;DHT22;11650;48.106;-1.696;2023-06-04T06:50:43;16.20;99.90
22968;DHT22;11650;48.106;-1.696;2023-06-04T06:53:08;16.40;99.90
22968;DHT22;11650;48.106;-1.696;2023-06-04T06:55:34;16.30;99.90
22968;DHT22;11650;48.106;-1.696;2023-06-04T06:58:00;16.40;99.90
22968;DHT22;11650;48.106;-1.696;2023-06-04T07:00:26;16.40;99.90
22968;DHT22;11650;48.106;-1.696;2023-06-04T07:02:53;16.60;99.90
22968;DHT22;11650;48.106;-1.696;2023-06-04T07:05:19;16.70;99.90
22968;DHT22;11650;48.106;-1.696;2023-06-04T07:07:45;16.70;99.90
22968;DHT22;11650;48.106;-1.696;2023-06-04T07:10:12;16.70;99.90
22968;DHT22;11650;48.106;-1.696;2023-06-04T07:12:38;16.90;99.90
22968;DHT22;11650;48.106;-1.696;2023-06-04T07:15:05;17.10;99.90
22968;DHT22;11650;48.106;-1.696;2023-06-04T07:17:32;17.00;99.90
22968;DHT22;11650;48.106;-1.696;2023-06-04T07:19:57;17.10;99.90
22968;DHT22;11650;48.106;-1.696;2023-06-04T07:22:23;17.10;99.90
22968;DHT22;11650;48.106;-1.696;2023-06-04T07:24:48;17.20;99.90
22968;DHT22;11650;48.106;-1.696;2023-06-04T07:27:15;17.30;99.90
22968;DHT22;11650;48.106;-1.696;2023-06-04T07:29:43;17.30;99.90
22968;DHT22;11650;48.106;-1.696;2023-06-04T07:32:10;17.20;99.90
22968;DHT22;11650;48.106;-1.696;2023-06-04T07:34:36;17.50;99.90
22968;DHT22;11650;48.106;-1.696;2023-06-04T07:37:03;17.60;99.90
22968;DHT22;11650;48.106;-1.696;2023-06-04T07:39:28;17.70;99.90
22968;DHT22;11650;48.106;-1.696;2023-06-04T07:41:54;17.60;99.90
22968;DHT22;11650;48.106;-1.696;2023-06-04T07:44:20;17.60;99.90
22968;DHT22;11650;48.106;-1.696;2023-06-04T07:46:45;17.70;99.90
22968;DHT22;11650;48.106;-1.696;2023-06-04T07:49:11;17.80;99.90
22968;DHT22;11650;48.106;-1.696;2023-06-04T07:51:37;18.00;99.90
22968;DHT22;11650;48.106;-1.696;2023-06-04T07:54:03;18.00;99.90
22968;DHT22;11650;48.106;-1.696;2023-06-04T07:56:28;18.10;99.90
22968;DHT22;11650;48.106;-1.696;2023-06-04T07:58:54;18.20;99.90
22968;DHT22;11650;48.106;-1.696;2023-06-04T08:01:20;18.30;99.90
22968;DHT22;11650;48.106;-1.696;2023-06-04T08:03:47;18.30;99.90
22968;DHT22;11650;48.106;-1.696;2023-06-04T08:06:12;18.30;99.90
22968;DHT22;11650;48.106;-1.696;2023-06-04T08:08:45;18.30;99.90
22968;DHT22;11650;48.106;-1.696;2023-06-04T08:11:15;18.50;99.90
22968;DHT22;11650;48.106;-1.696;2023-06-04T08:13:40;18.80;99.90
22968;DHT22;11650;48.106;-1.696;2023-06-04T08:16:07;18.80;99.90
22968;DHT22;11650;48.106;-1.696;2023-06-04T08:18:33;18.90;99.90
22968;DHT22;11650;48.106;-1.696;2023-06-04T08:20:58;18.90;99.90
22968;DHT22;11650;48.106;-1.696;2023-06-04T08:23:24;19.10;99.90
22968;DHT22;11650;48.106;-1.696;2023-06-04T08:25:50;18.90;99.90
22968;DHT22;11650;48.106;-1.696;2023-06-04T08:28:16;19.00;99.90
22968;DHT22;11650;48.106;-1.696;2023-06-04T08:30:45;19.10;99.90
22968;DHT22;11650;48.106;-1.696;2023-06-04T08:33:11;19.20;99.90
22968;DHT22;11650;48.106;-1.696;2023-06-04T08:35:36;19.30;99.90
22968;DHT22;11650;48.106;-1.696;2023-06-04T08:38:02;19.30;99.90
22968;DHT22;11650;48.106;-1.696;2023-06-04T08:40:28;19.40;99.90
22968;DHT22;11650;48.106;-1.696;2023-06-04T08:42:56;19.50;99.90
22968;DHT22;11650;48.106;-1.696;2023-06-04T08:45:24;19.60;99.90
22968;DHT22;11650;48.106;-1.696;2023-06-04T08:47:51;19.80;99.90
22968;DHT22;11650;48.106;-1.696;2023-06-04T08:50:19;19.80;99.90
22968;DHT22;11650;48.106;-1.696;2023-06-04T08:52:45;19.80;99.90
22968;DHT22;11650;48.106;-1.696;2023-06-04T08:55:11;20.00;99.90
22968;DHT22;11650;48.106;-1.696;2023-06-04T08:57:40;20.00;99.90
22968;DHT22;11650;48.106;-1.696;2023-06-04T09:00:07;20.10;99.90
22968;DHT22;11650;48.106;-1.696;2023-06-04T09:02:37;20.20;99.90
22968;DHT22;11650;48.106;-1.696;2023-06-04T09:05:04;20.40;99.90
22968;DHT22;11650;48.106;-1.696;2023-06-04T09:07:30;20.50;99.90
22968;DHT22;11650;48.106;-1.696;2023-06-04T09:09:58;20.50;99.90
22968;DHT22;11650;48.106;-1.696;2023-06-04T09:12:24;20.70;99.90
22968;DHT22;11650;48.106;-1.696;2023-06-04T09:14:51;20.70;99.90
22968;DHT22;11650;48.106;-1.696;2023-06-04T09:17:25;20.90;99.90
22968;DHT22;11650;48.106;-1.696;2023-06-04T09:19:51;21.20;99.90
22968;DHT22;11650;48.106;-1.696;2023-06-04T09:22:17;21.40;99.90
22968;DHT22;11650;48.106;-1.696;2023-06-04T09:24:47;21.50;99.90
22968;DHT22;11650;48.106;-1.696;2023-06-04T09:27:19;21.30;99.90
22968;DHT22;11650;48.106;-1.696;2023-06-04T09:29:55;21.30;99.90
22968;DHT22;11650;48.106;-1.696;2023-06-04T09:32:25;21.30;99.90
22968;DHT22;11650;48.106;-1.696;2023-06-04T09:34:52;21.50;99.90
22968;DHT22;11650;48.106;-1.696;2023-06-04T09:37:19;21.60;99.90
22968;DHT22;11650;48.106;-1.696;2023-06-04T09:39:55;21.60;99.90
22968;DHT22;11650;48.106;-1.696;2023-06-04T09:42:24;22.00;99.90
22968;DHT22;11650;48.106;-1.696;2023-06-04T09:44:50;21.90;99.90
22968;DHT22;11650;48.106;-1.696;2023-06-04T09:47:16;21.90;99.90
22968;DHT22;11650;48.106;-1.696;2023-06-04T09:49:50;21.90;99.90
22968;DHT22;11650;48.106;-1.696;2023-06-04T09:52:17;22.10;99.90
22968;DHT22;11650;48.106;-1.696;2023-06-04T09:54:43;22.10;99.90
22968;DHT22;11650;48.106;-1.696;2023-06-04T09:57:16;22.20;99.90
22968;DHT22;11650;48.106;-1.696;2023-06-04T09:59:44;22.30;99.90
22968;DHT22;11650;48.106;-1.696;2023-06-04T10:02:12;22.30;99.90
22968;DHT22;11650;48.106;-1.696;2023-06-04T10:04:41;22.40;99.90
22968;DHT22;11650;48.106;-1.696;2023-06-04T10:07:09;22.80;99.90
22968;DHT22;11650;48.106;-1.696;2023-06-04T10:09:39;22.70;99.90
22968;DHT22;11650;48.106;-1.696;2023-06-04T10:12:14;22.50;99.90
22968;DHT22;11650;48.106;-1.696;2023-06-04T10:14:58;22.60;99.90
22968;DHT22;11650;48.106;-1.696;2023-06-04T10:17:25;22.90;99.90
22968;DHT22;11650;48.106;-1.696;2023-06-04T10:19:54;23.30;99.90
22968;DHT22;11650;48.106;-1.696;2023-06-04T10:22:22;23.30;99.90
22968;DHT22;11650;48.106;-1.696;2023-06-04T10:24:49;23.20;99.90
22968;DHT22;11650;48.106;-1.696;2023-06-04T10:27:17;23.50;99.90
22968;DHT22;11650;48.106;-1.696;2023-06-04T10:29:43;23.40;99.90
22968;DHT22;11650;48.106;-1.696;2023-06-04T10:32:11;23.60;99.90
22968;DHT22;11650;48.106;-1.696;2023-06-04T10:34:36;23.80;99.90
22968;DHT22;11650;48.106;-1.696;2023-06-04T10:37:03;23.50;99.90
22968;DHT22;11650;48.106;-1.696;2023-06-04T10:39:30;23.70;99.90
22968;DHT22;11650;48.106;-1.696;2023-06-04T10:42:01;24.30;99.90
22968;DHT22;11650;48.106;-1.696;2023-06-04T10:44:29;24.20;99.90
22968;DHT22;11650;48.106;-1.696;2023-06-04T10:46:55;24.30;99.90
22968;DHT22;11650;48.106;-1.696;2023-06-04T10:49:28;24.30;99.90
22968;DHT22;11650;48.106;-1.696;2023-06-04T10:51:54;24.40;99.90
22968;DHT22;11650;48.106;-1.696;2023-06-04T10:54:29;24.60;99.90
22968;DHT22;11650;48.106;-1.696;2023-06-04T10:56:55;24.60;99.90
22968;DHT22;11650;48.106;-1.696;2023-06-04T10:59:21;24.60;99.90
22968;DHT22;11650;48.106;-1.696;2023-06-04T11:01:47;24.30;99.90
22968;DHT22;11650;48.106;-1.696;2023-06-04T11:04:21;24.50;99.90
22968;DHT22;11650;48.106;-1.696;2023-06-04T11:06:47;24.70;99.90
22968;DHT22;11650;48.106;-1.696;2023-06-04T11:09:14;24.50;99.90
22968;DHT22;11650;48.106;-1.696;2023-06-04T11:11:44;25.00;99.90
22968;DHT22;11650;48.106;-1.696;2023-06-04T11:14:13;25.30;99.90
22968;DHT22;11650;48.106;-1.696;2023-06-04T11:16:39;25.60;99.90
22968;DHT22;11650;48.106;-1.696;2023-06-04T11:19:05;25.60;99.90
22968;DHT22;11650;48.106;-1.696;2023-06-04T11:21:30;25.70;99.90
22968;DHT22;11650;48.106;-1.696;2023-06-04T11:23:59;25.30;99.90
22968;DHT22;11650;48.106;-1.696;2023-06-04T11:26:35;25.10;99.90
22968;DHT22;11650;48.106;-1.696;2023-06-04T11:29:02;25.40;99.90
22968;DHT22;11650;48.106;-1.696;2023-06-04T11:31:41;25.70;99.90
22968;DHT22;11650;48.106;-1.696;2023-06-04T11:34:07;26.00;99.90
22968;DHT22;11650;48.106;-1.696;2023-06-04T11:36:33;26.20;99.90
22968;DHT22;11650;48.106;-1.696;2023-06-04T11:39:00;26.10;99.90
22968;DHT22;11650;48.106;-1.696;2023-06-04T11:41:30;25.80;99.90
22968;DHT22;11650;48.106;-1.696;2023-06-04T11:43:56;26.10;99.90
22968;DHT22;11650;48.106;-1.696;2023-06-04T11:46:23;26.40;99.90
22968;DHT22;11650;48.106;-1.696;2023-06-04T11:48:53;26.00;99.90
22968;DHT22;11650;48.106;-1.696;2023-06-04T11:51:20;26.20;99.90
22968;DHT22;11650;48.106;-1.696;2023-06-04T11:53:46;26.30;99.90
22968;DHT22;11650;48.106;-1.696;2023-06-04T11:56:12;26.50;99.90
22968;DHT22;11650;48.106;-1.696;2023-06-04T11:58:38;26.80;99.90
22968;DHT22;11650;48.106;-1.696;2023-06-04T12:01:06;27.20;99.90
22968;DHT22;11650;48.106;-1.696;2023-06-04T12:03:38;27.00;99.90
22968;DHT22;11650;48.106;-1.696;2023-06-04T12:06:13;27.10;99.90
22968;DHT22;11650;48.106;-1.696;2023-06-04T12:08:55;27.30;99.90
22968;DHT22;11650;48.106;-1.696;2023-06-04T12:11:31;27.30;99.90
22968;DHT22;11650;48.106;-1.696;2023-06-04T12:13:59;26.80;99.90
22968;DHT22;11650;48.106;-1.696;2023-06-04T12:16:25;26.70;99.90
22968;DHT22;11650;48.106;-1.696;2023-06-04T12:18:51;27.20;99.90
22968;DHT22;11650;48.106;-1.696;2023-06-04T12:21:21;27.60;99.90
22968;DHT22;11650;48.106;-1.696;2023-06-04T12:26:36;27.60;99.90
22968;DHT22;11650;48.106;-1.696;2023-06-04T12:29:13;27.50;99.90
22968;DHT22;11650;48.106;-1.696;2023-06-04T12:31:40;27.60;99.90
22968;DHT22;11650;48.106;-1.696;2023-06-04T12:34:07;27.80;99.90
22968;DHT22;11650;48.106;-1.696;2023-06-04T12:36:32;28.10;99.90
22968;DHT22;11650;48.106;-1.696;2023-06-04T12:39:03;28.30;99.90
22968;DHT22;11650;48.106;-1.696;2023-06-04T12:41:29;28.10;99.90
22968;DHT22;11650;48.106;-1.696;2023-06-04T12:43:55;28.30;99.90
22968;DHT22;11650;48.106;-1.696;2023-06-04T12:46:22;28.90;99.90
22968;DHT22;11650;48.106;-1.696;2023-06-04T12:48:52;28.90;99.90
22968;DHT22;11650;48.106;-1.696;2023-06-04T12:51:19;29.20;99.90
22968;DHT22;11650;48.106;-1.696;2023-06-04T12:53:45;28.70;99.90
22968;DHT22;11650;48.106;-1.696;2023-06-04T12:56:10;28.90;99.90
22968;DHT22;11650;48.106;-1.696;2023-06-04T12:58:36;29.10;99.90
22968;DHT22;11650;48.106;-1.696;2023-06-04T13:01:03;28.80;99.90
22968;DHT22;11650;48.106;-1.696;2023-06-04T13:03:32;28.80;99.90
22968;DHT22;11650;48.106;-1.696;2023-06-04T13:05:58;28.90;99.90
22968;DHT22;11650;48.106;-1.696;2023-06-04T13:08:25;29.20;99.90
22968;DHT22;11650;48.106;-1.696;2023-06-04T13:10:51;29.50;99.90
22968;DHT22;11650;48.106;-1.696;2023-06-04T13:13:18;29.30;99.90
22968;DHT22;11650;48.106;-1.696;2023-06-04T13:15:44;29.80;99.90
22968;DHT22;11650;48.106;-1.696;2023-06-04T13:18:10;30.00;99.90
22968;DHT22;11650;48.106;-1.696;2023-06-04T13:20:37;30.10;99.90
22968;DHT22;11650;48.106;-1.696;2023-06-04T13:23:02;30.30;99.90
22968;DHT22;11650;48.106;-1.696;2023-06-04T13:25:28;30.10;99.90
22968;DHT22;11650;48.106;-1.696;2023-06-04T13:27:54;30.80;99.90
22968;DHT22;11650;48.106;-1.696;2023-06-04T13:30:21;31.10;99.90
22968;DHT22;11650;48.106;-1.696;2023-06-04T13:32:48;30.30;99.90
22968;DHT22;11650;48.106;-1.696;2023-06-04T13:35:13;31.20;99.90
22968;DHT22;11650;48.106;-1.696;2023-06-04T13:37:39;31.90;99.90
22968;DHT22;11650;48.106;-1.696;2023-06-04T13:40:05;32.40;99.90
22968;DHT22;11650;48.106;-1.696;2023-06-04T13:42:31;32.30;99.90
22968;DHT22;11650;48.106;-1.696;2023-06-04T13:44:57;31.50;99.90
22968;DHT22;11650;48.106;-1.696;2023-06-04T13:47:24;32.20;99.90
22968;DHT22;11650;48.106;-1.696;2023-06-04T13:49:50;32.20;99.90
22968;DHT22;11650;48.106;-1.696;2023-06-04T13:52:15;33.20;99.90
22968;DHT22;11650;48.106;-1.696;2023-06-04T13:54:41;33.00;99.00
22968;DHT22;11650;48.106;-1.696;2023-06-04T13:57:07;32.50;99.40
22968;DHT22;11650;48.106;-1.696;2023-06-04T13:59:37;32.50;98.90
22968;DHT22;11650;48.106;-1.696;2023-06-04T14:02:02;33.70;98.20
22968;DHT22;11650;48.106;-1.696;2023-06-04T14:04:28;33.90;97.90
22968;DHT22;11650;48.106;-1.696;2023-06-04T14:06:54;34.10;96.60
22968;DHT22;11650;48.106;-1.696;2023-06-04T14:09:19;34.10;96.90
22968;DHT22;11650;48.106;-1.696;2023-06-04T14:11:45;34.90;96.30
22968;DHT22;11650;48.106;-1.696;2023-06-04T14:14:16;34.90;95.60
22968;DHT22;11650;48.106;-1.696;2023-06-04T14:16:43;35.10;95.00
22968;DHT22;11650;48.106;-1.696;2023-06-04T14:19:08;35.00;94.60
22968;DHT22;11650;48.106;-1.696;2023-06-04T14:21:34;35.60;94.30
22968;DHT22;11650;48.106;-1.696;2023-06-04T14:24:00;35.70;93.80
22968;DHT22;11650;48.106;-1.696;2023-06-04T14:26:26;35.20;93.10
22968;DHT22;11650;48.106;-1.696;2023-06-04T14:28:52;34.40;93.20
22968;DHT22;11650;48.106;-1.696;2023-06-04T14:31:17;34.70;93.50
22968;DHT22;11650;48.106;-1.696;2023-06-04T14:33:43;34.80;92.80
22968;DHT22;11650;48.106;-1.696;2023-06-04T14:36:09;35.90;92.50
22968;DHT22;11650;48.106;-1.696;2023-06-04T14:38:34;36.40;92.20
22968;DHT22;11650;48.106;-1.696;2023-06-04T14:41:00;36.50;91.90
22968;DHT22;11650;48.106;-1.696;2023-06-04T14:43:26;36.00;90.70
22968;DHT22;11650;48.106;-1.696;2023-06-04T14:45:51;35.80;91.00
22968;DHT22;11650;48.106;-1.696;2023-06-04T14:48:17;35.90;90.00
22968;DHT22;11650;48.106;-1.696;2023-06-04T14:50:43;36.10;90.20
22968;DHT22;11650;48.106;-1.696;2023-06-04T14:53:09;36.70;90.00
22968;DHT22;11650;48.106;-1.696;2023-06-04T14:55:35;36.60;87.40
22968;DHT22;11650;48.106;-1.696;2023-06-04T14:58:01;36.30;89.00
22968;DHT22;11650;48.106;-1.696;2023-06-04T15:00:28;36.00;88.90
22968;DHT22;11650;48.106;-1.696;2023-06-04T15:02:54;35.50;90.10
22968;DHT22;11650;48.106;-1.696;2023-06-04T15:05:19;34.80;90.00
22968;DHT22;11650;48.106;-1.696;2023-06-04T15:07:45;34.00;90.30
22968;DHT22;11650;48.106;-1.696;2023-06-04T15:10:11;34.20;90.40
22968;DHT22;11650;48.106;-1.696;2023-06-04T15:12:36;32.60;91.30
22968;DHT22;11650;48.106;-1.696;2023-06-04T15:15:05;34.10;91.50
22968;DHT22;11650;48.106;-1.696;2023-06-04T15:17:31;35.80;90.00
22968;DHT22;11650;48.106;-1.696;2023-06-04T15:19:57;35.40;90.20
22968;DHT22;11650;48.106;-1.696;2023-06-04T15:22:23;37.20;88.90